Time;durP1;ratioP1;P1;durP2;ratioP2;P2;SDS_P1;SDS_P2;PMS_P1;PMS_P2;Temp;Humidity;BMP_temperature;BMP_pressure;BME280_temperature;BME280_humidity;BME280_pressure;Samples;Min_cycle;Max_cycle;Signal;HPM_P1;HPM_P2
2023/11/28 00:01:35;;;;;;;3.17;2.88;;;6.60;79.60;;;;;;4957297;29;20023;-74
2023/11/28 00:04:01;;;;;;;2.78;2.53;;;6.60;79.60;;;;;;4955472;29;20047;-74
2023/11/28 00:06:27;;;;;;;3.10;2.80;;;6.60;79.70;;;;;;4955357;29;20118;-74
2023/11/28 00:08:52;;;;;;;4.03;3.50;;;6.60;79.70;;;;;;4938133;29;20169;-74
2023/11/28 00:11:20;;;;;;;3.30;2.80;;;6.60;79.70;;;;;;4953594;29;20067;-74
2023/11/28 00:13:46;;;;;;;3.33;3.03;;;6.60;79.70;;;;;;4954613;28;20035;-74
2023/11/28 00:16:12;;;;;;;3.15;2.85;;;6.60;79.70;;;;;;4941206;29;20054;-74
2023/11/28 00:18:38;;;;;;;3.63;3.17;;;6.60;79.70;;;;;;4957173;29;20094;-74
2023/11/28 00:21:04;;;;;;;3.50;3.13;;;6.60;79.70;;;;;;4958289;28;20035;-74
2023/11/28 00:23:29;;;;;;;3.58;3.25;;;6.60;79.70;;;;;;4958021;29;20555;-74
2023/11/28 00:25:55;;;;;;;3.95;3.53;;;6.60;79.70;;;;;;4958505;29;20031;-74
2023/11/28 00:28:21;;;;;;;4.28;3.42;;;6.60;79.60;;;;;;4941174;29;20039;-73
2023/11/28 00:30:47;;;;;;;4.22;3.33;;;6.60;79.70;;;;;;4956924;29;20036;-73
2023/11/28 00:33:12;;;;;;;4.25;3.63;;;6.60;79.60;;;;;;4957141;29;20043;-73
2023/11/28 00:35:38;;;;;;;4.10;3.67;;;6.60;80.30;;;;;;4941210;29;20042;-73
2023/11/28 00:38:05;;;;;;;4.18;3.58;;;6.60;79.60;;;;;;4942492;29;20032;-74
2023/11/28 00:40:31;;;;;;;4.00;3.35;;;6.60;79.60;;;;;;4958322;29;20039;-72
2023/11/28 00:43:01;;;;;;;4.10;3.40;;;6.60;79.60;;;;;;4957464;29;20030;-73
2023/11/28 00:45:26;;;;;;;4.32;3.80;;;6.60;79.60;;;;;;4956926;29;20105;-74
2023/11/28 00:47:53;;;;;;;4.03;3.33;;;6.60;79.60;;;;;;4940737;29;20547;-74
2023/11/28 00:50:19;;;;;;;4.07;3.55;;;6.60;79.60;;;;;;4957848;28;20023;-74
2023/11/28 00:52:45;;;;;;;4.25;3.60;;;6.60;79.60;;;;;;4941318;29;20368;-73
2023/11/28 00:55:11;;;;;;;4.05;3.50;;;6.60;79.60;;;;;;4941030;29;20370;-74
2023/11/28 00:57:37;;;;;;;3.70;3.22;;;6.50;79.60;;;;;;4958089;28;20039;-74
2023/11/28 01:00:09;;;;;;;3.90;3.40;;;6.50;79.50;;;;;;4940173;29;20425;-74
2023/11/28 01:02:34;;;;;;;4.00;3.47;;;6.60;79.60;;;;;;4941229;29;20184;-74
2023/11/28 01:05:00;;;;;;;4.15;3.65;;;6.50;79.50;;;;;;4956261;29;20039;-74
2023/11/28 01:07:26;;;;;;;4.30;3.75;;;6.60;79.60;;;;;;4956299;29;20036;-74
2023/11/28 01:09:52;;;;;;;3.92;3.30;;;6.60;79.60;;;;;;4940124;29;20035;-74
2023/11/28 01:12:19;;;;;;;4.10;3.35;;;6.50;79.50;;;;;;4940995;29;20031;-75
2023/11/28 01:14:45;;;;;;;4.13;3.70;;;6.50;79.60;;;;;;4957032;28;20038;-74
2023/11/28 01:17:12;;;;;;;4.50;3.97;;;6.50;79.50;;;;;;4956000;29;20035;-74
2023/11/28 01:19:38;;;;;;;4.68;3.90;;;6.50;79.50;;;;;;4956123;29;20063;-75
2023/11/28 01:22:06;;;;;;;3.75;3.13;;;6.50;79.50;;;;;;4955760;29;20424;-74
2023/11/28 01:24:32;;;;;;;4.50;3.45;;;6.50;79.50;;;;;;4939680;29;20042;-75
2023/11/28 01:26:58;;;;;;;3.97;3.38;;;6.50;79.60;;;;;;4939433;29;20043;-74
2023/11/28 01:29:24;;;;;;;4.30;3.20;;;6.50;79.50;;;;;;4939543;29;20170;-74
2023/11/28 01:31:50;;;;;;;4.28;3.70;;;6.50;79.50;;;;;;4940106;29;20063;-74
2023/11/28 01:34:16;;;;;;;3.88;3.45;;;6.50;79.50;;;;;;4957404;28;20464;-74
2023/11/28 01:36:43;;;;;;;3.67;3.28;;;6.50;79.50;;;;;;4955723;29;20051;-74
2023/11/28 01:39:12;;;;;;;4.68;3.83;;;6.50;79.50;;;;;;4940056;29;20062;-73
2023/11/28 01:41:38;;;;;;;4.45;3.53;;;6.50;79.50;;;;;;4939806;29;20027;-74
2023/11/28 01:44:05;;;;;;;3.97;3.47;;;6.50;79.50;;;;;;4956909;28;20067;-74
2023/11/28 01:46:36;;;;;;;3.90;3.17;;;6.50;79.50;;;;;;4956650;29;20113;-74
2023/11/28 01:49:03;;;;;;;3.70;3.22;;;6.50;79.50;;;;;;4955384;29;20031;-75
2023/11/28 01:51:34;;;;;;;4.07;3.30;;;6.50;79.50;;;;;;4955995;29;20046;-74
2023/11/28 01:54:02;;;;;;;3.42;2.90;;;6.50;79.50;;;;;;4955469;29;20035;-74
2023/11/28 01:56:29;;;;;;;3.85;3.45;;;6.50;79.50;;;;;;4955272;29;20039;-74
2023/11/28 01:58:55;;;;;;;4.22;3.35;;;6.50;79.50;;;;;;4955547;29;20035;-74
2023/11/28 02:01:22;;;;;;;4.45;3.70;;;6.40;79.40;;;;;;4955298;29;20043;-74
2023/11/28 02:03:49;;;;;;;4.45;3.50;;;6.50;79.50;;;;;;4956232;28;20034;-74
2023/11/28 02:06:15;;;;;;;4.35;3.35;;;6.50;79.50;;;;;;4955181;29;20126;-74
2023/11/28 02:08:41;;;;;;;3.80;3.25;;;6.40;79.40;;;;;;4938896;29;20130;-74
2023/11/28 02:11:07;;;;;;;4.15;3.25;;;6.40;79.40;;;;;;4939115;29;20054;-74
2023/11/28 02:13:34;;;;;;;4.68;3.53;;;6.40;79.40;;;;;;4955958;28;20077;-75
2023/11/28 02:16:09;;;;;;;3.92;3.40;;;6.40;79.40;;;;;;4955209;29;20047;-74
2023/11/28 02:18:35;;;;;;;3.47;3.17;;;6.40;79.40;;;;;;4955044;29;20055;-74
2023/11/28 02:21:01;;;;;;;4.32;3.30;;;6.40;79.40;;;;;;4938992;29;20106;-74
2023/11/28 02:23:27;;;;;;;4.15;3.35;;;6.40;79.40;;;;;;4956096;28;20042;-75
2023/11/28 02:25:56;;;;;;;4.30;3.67;;;6.40;79.40;;;;;;4956074;29;20031;-75
2023/11/28 02:28:24;;;;;;;3.45;3.13;;;6.40;79.40;;;;;;4954828;29;20031;-75
2023/11/28 02:30:53;;;;;;;4.57;3.92;;;6.40;79.40;;;;;;4955330;29;20027;-74
2023/11/28 02:33:19;;;;;;;4.45;3.70;;;6.40;80.00;;;;;;4954870;29;20082;-74
2023/11/28 02:35:45;;;;;;;3.95;3.45;;;6.40;79.40;;;;;;4954616;29;20540;-74
2023/11/28 02:38:15;;;;;;;4.50;3.72;;;6.40;79.40;;;;;;4954033;28;20051;-74
2023/11/28 02:40:41;;;;;;;4.57;3.70;;;6.30;79.40;;;;;;4954542;29;20086;-74
2023/11/28 02:43:07;;;;;;;4.40;3.88;;;6.30;79.30;;;;;;4954226;29;20078;-74
2023/11/28 02:45:33;;;;;;;4.80;3.85;;;6.30;79.30;;;;;;4938252;29;20039;-75
2023/11/28 02:47:58;;;;;;;4.75;3.90;;;6.30;79.30;;;;;;4955623;29;20023;-74
2023/11/28 02:50:24;;;;;;;5.20;4.25;;;6.30;79.30;;;;;;4955751;28;20039;-75
2023/11/28 02:52:51;;;;;;;4.45;3.42;;;6.30;79.30;;;;;;4938584;29;20028;-74
2023/11/28 02:55:17;;;;;;;4.63;4.10;;;6.30;79.30;;;;;;4954425;29;20059;-74
2023/11/28 02:57:43;;;;;;;4.38;3.67;;;6.30;79.30;;;;;;4954366;29;20039;-74
2023/11/28 03:00:10;;;;;;;5.38;4.20;;;6.30;79.30;;;;;;4938499;29;20039;-74
2023/11/28 03:02:36;;;;;;;4.93;3.85;;;6.30;79.30;;;;;;4922617;29;20074;-74
2023/11/28 03:05:03;;;;;;;4.70;3.88;;;6.30;79.30;;;;;;4955226;28;20540;-74
2023/11/28 03:07:28;;;;;;;4.72;4.07;;;6.30;79.30;;;;;;4955927;29;20110;-74
2023/11/28 03:09:54;;;;;;;4.38;3.83;;;6.30;79.30;;;;;;4954111;29;20059;-74
2023/11/28 03:12:20;;;;;;;4.75;3.95;;;6.30;79.30;;;;;;4954200;29;20031;-74
2023/11/28 03:14:46;;;;;;;5.25;4.00;;;6.30;79.30;;;;;;4953970;29;20547;-74
2023/11/28 03:17:11;;;;;;;5.10;4.45;;;6.20;79.30;;;;;;4938234;29;20050;-74
2023/11/28 03:19:37;;;;;;;4.75;4.05;;;6.30;79.30;;;;;;4937469;29;20051;-74
2023/11/28 03:22:04;;;;;;;5.60;4.40;;;6.20;79.30;;;;;;4954195;29;20043;-74
2023/11/28 03:24:31;;;;;;;4.88;4.10;;;6.20;79.30;;;;;;4955191;29;20039;-74
2023/11/28 03:26:57;;;;;;;4.82;4.10;;;6.20;79.30;;;;;;4938760;29;20342;-74
2023/11/28 03:29:23;;;;;;;5.05;4.13;;;6.20;79.30;;;;;;4954042;29;20132;-73
2023/11/28 03:31:48;;;;;;;5.00;4.30;;;6.20;79.20;;;;;;4937879;29;20032;-74
2023/11/28 03:34:14;;;;;;;4.85;4.22;;;6.20;79.20;;;;;;4954736;29;20047;-74
2023/11/28 03:36:40;;;;;;;5.45;4.40;;;6.20;79.20;;;;;;4953967;29;20043;-74
2023/11/28 03:39:06;;;;;;;5.10;4.18;;;6.20;79.20;;;;;;4938215;29;20078;-75
2023/11/28 03:41:32;;;;;;;5.25;4.13;;;6.20;79.20;;;;;;4955246;28;20519;-74
2023/11/28 03:44:00;;;;;;;4.38;3.65;;;6.20;79.20;;;;;;4954075;29;20127;-74
2023/11/28 03:46:26;;;;;;;4.95;4.00;;;6.20;79.20;;;;;;4955601;28;20082;-74
2023/11/28 03:48:52;;;;;;;5.05;3.85;;;6.20;79.20;;;;;;4954172;28;20119;-74
2023/11/28 03:51:18;;;;;;;5.00;4.00;;;6.20;79.20;;;;;;4958891;29;20023;-74
2023/11/28 03:53:44;;;;;;;5.15;4.13;;;6.20;79.20;;;;;;4941701;29;20023;-73
2023/11/28 03:56:11;;;;;;;4.60;3.70;;;6.20;79.20;;;;;;4958765;28;20075;-74
2023/11/28 03:58:37;;;;;;;4.90;3.72;;;6.20;79.20;;;;;;4942091;29;20095;-74
2023/11/28 04:01:04;;;;;;;4.72;3.80;;;6.20;79.20;;;;;;4957297;29;20063;-74
2023/11/28 04:03:30;;;;;;;4.97;3.97;;;6.10;79.10;;;;;;4957511;29;20023;-74
2023/11/28 04:05:56;;;;;;;4.25;3.45;;;6.10;79.10;;;;;;4957598;29;20042;-74
2023/11/28 04:08:23;;;;;;;4.57;3.55;;;6.10;79.10;;;;;;4957383;29;20023;-74
2023/11/28 04:10:49;;;;;;;4.07;3.42;;;6.10;79.10;;;;;;4957883;29;20031;-74
2023/11/28 04:13:15;;;;;;;4.22;3.33;;;6.10;79.10;;;;;;4941190;29;20113;-74
2023/11/28 04:15:41;;;;;;;5.38;3.60;;;6.10;79.10;;;;;;4925982;29;20035;-73
2023/11/28 04:18:11;;;;;;;4.03;3.28;;;6.10;79.10;;;;;;4941347;29;20096;-74
2023/11/28 04:20:38;;;;;;;4.32;3.10;;;6.10;79.10;;;;;;4957315;29;20079;-73
2023/11/28 04:23:06;;;;;;;4.22;3.17;;;6.00;79.00;;;;;;4957118;29;20066;-74
2023/11/28 04:25:32;;;;;;;3.20;2.90;;;6.00;79.00;;;;;;4957754;29;20039;-74
2023/11/28 04:27:58;;;;;;;3.70;2.80;;;6.00;79.00;;;;;;4956999;29;20035;-73
2023/11/28 04:30:24;;;;;;;3.08;2.78;;;6.00;79.00;;;;;;4940781;29;20086;-74
2023/11/28 04:32:50;;;;;;;3.90;3.05;;;6.00;79.00;;;;;;4941262;29;20155;-74
2023/11/28 04:35:19;;;;;;;3.55;2.78;;;6.00;79.00;;;;;;4941918;29;20099;-75
2023/11/28 04:37:45;;;;;;;4.32;3.03;;;5.90;78.90;;;;;;4941045;29;20396;-74
2023/11/28 04:40:11;;;;;;;3.13;2.63;;;5.90;78.90;;;;;;4956795;29;20035;-74
2023/11/28 04:42:39;;;;;;;3.67;2.58;;;5.90;78.90;;;;;;4956879;29;20039;-74
2023/11/28 04:45:06;;;;;;;3.30;2.40;;;5.90;79.00;;;;;;4956848;29;20113;-74
2023/11/28 04:47:32;;;;;;;3.17;2.60;;;5.90;79.00;;;;;;4940728;29;20043;-74
2023/11/28 04:49:58;;;;;;;4.18;2.83;;;5.90;78.90;;;;;;4940637;29;20094;-74
2023/11/28 04:52:24;;;;;;;2.63;2.10;;;5.80;78.90;;;;;;4940771;29;20468;-74
2023/11/28 04:54:49;;;;;;;2.80;2.20;;;5.80;78.90;;;;;;4940506;29;20126;-74
2023/11/28 04:57:15;;;;;;;3.33;2.60;;;5.80;78.90;;;;;;4940432;29;20047;-74
2023/11/28 04:59:41;;;;;;;3.65;2.78;;;5.80;78.90;;;;;;4956274;29;20535;-74
2023/11/28 05:02:07;;;;;;;3.00;2.50;;;5.80;78.90;;;;;;4923337;29;20042;-74
2023/11/28 05:04:33;;;;;;;2.35;2.15;;;5.80;78.90;;;;;;4940040;29;20125;-74
2023/11/28 05:06:59;;;;;;;2.50;2.20;;;5.70;78.90;;;;;;4956495;29;20071;-73
2023/11/28 05:09:27;;;;;;;2.45;2.10;;;5.70;78.90;;;;;;4924604;29;20035;-74
2023/11/28 05:11:53;;;;;;;2.42;2.15;;;5.70;78.90;;;;;;4956872;29;20373;-74
2023/11/28 05:14:19;;;;;;;2.65;1.90;;;5.70;78.90;;;;;;4940149;29;20058;-74
2023/11/28 05:16:45;;;;;;;2.67;2.20;;;5.70;78.90;;;;;;4957168;28;20039;-74
2023/11/28 05:19:11;;;;;;;2.67;2.10;;;5.60;78.90;;;;;;4939738;29;20051;-74
2023/11/28 05:21:38;;;;;;;2.42;2.22;;;5.60;78.90;;;;;;4940806;29;20090;-74
2023/11/28 05:24:04;;;;;;;2.78;2.17;;;5.60;78.90;;;;;;4956164;29;20118;-74
2023/11/28 05:26:30;;;;;;;2.33;2.13;;;5.60;78.80;;;;;;4940197;29;20035;-73
2023/11/28 05:28:56;;;;;;;2.38;2.10;;;5.60;78.90;;;;;;4940003;29;20051;-75
2023/11/28 05:31:23;;;;;;;2.90;2.30;;;5.60;78.90;;;;;;4955970;29;20063;-74
2023/11/28 05:33:50;;;;;;;2.88;2.20;;;5.50;78.80;;;;;;4939830;29;20090;-73
2023/11/28 05:36:16;;;;;;;2.63;2.20;;;5.50;78.90;;;;;;4939656;29;20043;-74
2023/11/28 05:38:42;;;;;;;2.75;2.20;;;5.50;78.90;;;;;;4939948;29;20125;-75
2023/11/28 05:41:09;;;;;;;2.97;2.60;;;5.50;78.90;;;;;;4955059;29;20462;-75
2023/11/28 05:43:35;;;;;;;3.28;2.47;;;5.50;78.90;;;;;;4939880;29;20436;-75
2023/11/28 05:46:01;;;;;;;2.67;2.20;;;5.40;78.80;;;;;;4955405;29;20031;-75
2023/11/28 05:48:27;;;;;;;2.28;2.05;;;5.40;78.80;;;;;;4939539;29;20391;-75
2023/11/28 05:50:53;;;;;;;2.80;2.40;;;5.40;78.80;;;;;;4939445;29;20123;-74
2023/11/28 05:53:20;;;;;;;2.70;2.38;;;5.40;78.80;;;;;;4940002;29;20027;-74
2023/11/28 05:55:47;;;;;;;2.45;2.10;;;5.40;78.80;;;;;;4955140;29;20050;-75
2023/11/28 05:58:14;;;;;;;2.33;2.13;;;5.40;78.80;;;;;;4955348;29;20023;-74
2023/11/28 06:00:43;;;;;;;3.10;2.60;;;5.40;78.80;;;;;;4955186;29;20040;-73
2023/11/28 06:03:09;;;;;;;2.50;2.10;;;5.30;78.80;;;;;;4939823;29;20027;-75
2023/11/28 06:05:37;;;;;;;2.92;2.20;;;5.30;78.80;;;;;;4939689;29;20039;-74
2023/11/28 06:08:05;;;;;;;3.35;2.20;;;5.30;78.80;;;;;;4939484;29;20027;-74
2023/11/28 06:10:30;;;;;;;2.55;2.20;;;5.30;78.80;;;;;;4954961;29;20034;-74
2023/11/28 06:12:57;;;;;;;2.92;2.33;;;5.30;78.80;;;;;;4955403;28;20045;-74
2023/11/28 06:15:24;;;;;;;3.28;2.30;;;5.30;78.80;;;;;;4939217;29;20480;-74
2023/11/28 06:17:49;;;;;;;3.25;2.40;;;5.30;78.80;;;;;;4955960;28;20046;-74
2023/11/28 06:20:15;;;;;;;2.47;2.25;;;5.20;78.70;;;;;;4954950;29;20027;-74
2023/11/28 06:22:43;;;;;;;2.50;2.20;;;5.20;78.70;;;;;;4939315;29;20042;-74
2023/11/28 06:25:09;;;;;;;2.67;2.22;;;5.20;78.70;;;;;;4955069;29;20438;-74
2023/11/28 06:27:35;;;;;;;2.97;2.55;;;5.20;78.70;;;;;;4954608;29;20046;-74
2023/11/28 06:30:01;;;;;;;3.17;2.65;;;5.20;78.80;;;;;;4954606;29;20042;-74
2023/11/28 06:32:26;;;;;;;2.95;2.58;;;5.20;78.80;;;;;;4955271;29;20432;-74
2023/11/28 06:34:52;;;;;;;3.30;2.45;;;5.20;78.80;;;;;;4954771;29;20381;-74
2023/11/28 06:37:18;;;;;;;2.58;2.15;;;5.20;78.80;;;;;;4954606;29;20031;-75
2023/11/28 06:39:47;;;;;;;4.32;2.17;;;5.20;78.80;;;;;;4955633;28;20039;-74
2023/11/28 06:42:14;;;;;;;3.65;2.40;;;5.10;78.70;;;;;;4955190;29;20039;-74
2023/11/28 06:44:40;;;;;;;2.65;2.33;;;5.10;78.70;;;;;;4938572;29;20028;-74
2023/11/28 06:47:06;;;;;;;2.50;2.30;;;5.10;78.70;;;;;;4938894;29;20050;-74
2023/11/28 06:49:31;;;;;;;3.35;2.78;;;5.10;78.70;;;;;;4954715;29;20039;-74
2023/11/28 06:51:58;;;;;;;3.15;2.53;;;5.10;78.70;;;;;;4955751;28;20039;-74
2023/11/28 06:54:25;;;;;;;2.50;2.28;;;5.10;78.80;;;;;;4955432;28;20039;-74
2023/11/28 06:56:50;;;;;;;2.50;2.30;;;5.10;78.70;;;;;;4955271;28;20031;-74
2023/11/28 06:59:16;;;;;;;2.85;2.55;;;5.10;78.70;;;;;;4955594;29;20035;-73
2023/11/28 07:01:42;;;;;;;2.97;2.47;;;5.00;78.70;;;;;;4954243;29;20066;-74
2023/11/28 07:04:07;;;;;;;2.72;2.40;;;5.00;78.70;;;;;;4954534;29;20046;-74
2023/11/28 07:06:33;;;;;;;2.83;2.40;;;5.00;78.70;;;;;;4954816;29;20094;-72
2023/11/28 07:08:59;;;;;;;2.35;2.15;;;5.00;78.70;;;;;;4954505;29;20035;-72
2023/11/28 07:11:25;;;;;;;3.03;2.42;;;5.00;78.70;;;;;;4923209;29;20038;-72
2023/11/28 07:13:50;;;;;;;2.97;2.20;;;5.00;78.70;;;;;;4953871;29;20063;-72
2023/11/28 07:16:17;;;;;;;2.58;2.30;;;5.00;78.60;;;;;;4938531;29;20059;-73
2023/11/28 07:18:44;;;;;;;3.03;2.40;;;5.00;78.70;;;;;;4938240;29;20070;-72
2023/11/28 07:21:12;;;;;;;2.50;2.20;;;5.10;78.70;;;;;;4954237;29;20031;-73
2023/11/28 07:23:38;;;;;;;3.17;2.42;;;5.00;78.70;;;;;;4956057;28;20476;-73
2023/11/28 07:26:04;;;;;;;2.42;2.08;;;5.00;78.70;;;;;;4959812;28;20027;-73
2023/11/28 07:28:30;;;;;;;2.80;2.50;;;5.00;78.70;;;;;;4961366;28;20039;-73
2023/11/28 07:30:57;;;;;;;3.13;2.30;;;5.00;78.70;;;;;;4961640;28;20479;-73
2023/11/28 07:33:25;;;;;;;2.60;2.30;;;5.00;78.70;;;;;;4961723;28;20544;-73
2023/11/28 07:35:52;;;;;;;3.72;2.20;;;5.00;78.70;;;;;;4961061;29;20103;-73
2023/11/28 07:38:21;;;;;;;2.20;2.00;;;5.00;78.70;;;;;;4944702;29;20554;-73
2023/11/28 07:40:47;;;;;;;2.67;2.30;;;5.00;78.70;;;;;;4961491;28;20098;-73
2023/11/28 07:43:13;;;;;;;2.50;2.22;;;5.00;78.70;;;;;;4960604;28;20035;-73
2023/11/28 07:45:40;;;;;;;2.22;2.03;;;5.00;78.70;;;;;;4960881;29;20074;-73
2023/11/28 07:48:06;;;;;;;2.63;2.40;;;5.00;78.70;;;;;;4931762;29;20032;-72
2023/11/28 07:50:31;;;;;;;2.50;2.20;;;5.00;78.70;;;;;;4961480;29;20122;-72
2023/11/28 07:52:58;;;;;;;3.20;2.30;;;5.00;78.70;;;;;;4961640;29;20068;-73
2023/11/28 07:55:23;;;;;;;2.38;2.15;;;5.00;78.60;;;;;;4946385;29;20063;-73
2023/11/28 07:57:49;;;;;;;2.60;2.40;;;5.00;78.70;;;;;;4962370;29;20044;-73
2023/11/28 08:00:15;;;;;;;3.08;2.20;;;5.00;78.60;;;;;;4960701;29;20491;-73
2023/11/28 08:02:41;;;;;;;2.83;2.30;;;5.00;78.60;;;;;;4929225;29;20067;-73
2023/11/28 08:05:07;;;;;;;3.05;2.20;;;5.00;78.60;;;;;;4961239;28;20031;-73
2023/11/28 08:07:33;;;;;;;2.50;2.20;;;5.00;78.60;;;;;;4961182;28;20081;-73
2023/11/28 08:10:10;;;;;;;2.80;2.30;;;5.00;78.60;;;;;;4960164;29;20059;-72
2023/11/28 08:12:36;;;;;;;3.25;2.28;;;5.00;78.60;;;;;;4961006;29;20039;-73
2023/11/28 08:15:02;;;;;;;2.30;2.10;;;5.00;78.60;;;;;;4944037;29;20522;-72
2023/11/28 08:17:28;;;;;;;3.65;2.55;;;5.00;78.60;;;;;;4943885;29;20076;-73
2023/11/28 08:19:53;;;;;;;2.38;1.95;;;5.00;78.60;;;;;;4961300;29;20057;-73
2023/11/28 08:22:19;;;;;;;2.15;1.95;;;5.00;78.60;;;;;;4943909;29;20039;-72
2023/11/28 08:24:45;;;;;;;2.72;2.30;;;5.00;78.60;;;;;;4943998;29;20032;-73
2023/11/28 08:27:11;;;;;;;2.45;2.15;;;5.00;78.60;;;;;;4960401;28;20035;-73
2023/11/28 08:29:36;;;;;;;2.83;2.20;;;5.00;78.60;;;;;;4959594;29;20039;-73
2023/11/28 08:32:02;;;;;;;2.47;2.28;;;5.00;78.60;;;;;;4959510;29;20082;-73
2023/11/28 08:34:28;;;;;;;2.30;2.00;;;5.00;78.60;;;;;;4960856;28;20066;-72
2023/11/28 08:36:54;;;;;;;2.42;2.17;;;5.00;78.60;;;;;;4925379;29;20568;-73
2023/11/28 08:39:20;;;;;;;2.40;2.10;;;5.00;78.60;;;;;;4940904;29;20031;-73
2023/11/28 08:41:46;;;;;;;2.10;1.95;;;5.00;78.60;;;;;;4940697;29;20040;-73
2023/11/28 08:44:12;;;;;;;2.60;2.28;;;5.00;78.60;;;;;;4957410;29;20376;-73
2023/11/28 08:46:37;;;;;;;2.78;2.30;;;5.00;78.60;;;;;;4957555;29;20035;-73
2023/11/28 08:49:05;;;;;;;2.65;2.30;;;5.00;78.60;;;;;;4957038;29;20047;-73
2023/11/28 08:51:31;;;;;;;2.20;2.00;;;5.00;78.60;;;;;;4940293;29;20027;-73
2023/11/28 08:53:57;;;;;;;3.25;2.20;;;5.00;78.60;;;;;;4956164;29;20060;-73
2023/11/28 08:56:23;;;;;;;2.97;2.38;;;5.00;78.50;;;;;;4956291;29;20050;-73
2023/11/28 08:58:49;;;;;;;3.17;2.72;;;5.00;78.60;;;;;;4957348;29;20047;-75
2023/11/28 09:01:15;;;;;;;2.47;2.28;;;5.00;78.50;;;;;;4940143;29;20150;-73
2023/11/28 09:03:41;;;;;;;2.50;2.30;;;5.00;78.50;;;;;;4956198;29;20499;-74
2023/11/28 09:06:07;;;;;;;2.72;2.22;;;5.00;78.50;;;;;;4940530;29;20454;-74
2023/11/28 09:08:34;;;;;;;2.35;2.15;;;5.00;78.60;;;;;;4957241;29;20114;-73
2023/11/28 09:11:02;;;;;;;2.65;2.20;;;5.00;78.60;;;;;;4941120;29;20126;-74
2023/11/28 09:13:28;;;;;;;2.47;2.17;;;5.00;78.50;;;;;;4957780;28;20153;-74
2023/11/28 09:15:55;;;;;;;3.00;2.22;;;5.00;78.60;;;;;;4956233;29;20477;-73
2023/11/28 09:18:21;;;;;;;2.40;2.20;;;5.00;78.50;;;;;;4955730;29;20055;-74
2023/11/28 09:20:47;;;;;;;2.30;2.10;;;5.00;78.50;;;;;;4955827;29;20078;-73
2023/11/28 09:23:14;;;;;;;2.50;2.30;;;5.00;78.50;;;;;;4956147;29;20046;-73
2023/11/28 09:25:39;;;;;;;2.33;2.13;;;5.00;78.50;;;;;;4940260;29;20076;-73
2023/11/28 09:28:05;;;;;;;2.72;2.22;;;5.00;78.50;;;;;;4957422;29;20554;-75
2023/11/28 09:30:31;;;;;;;2.28;2.08;;;5.00;78.50;;;;;;4956005;29;20051;-73
2023/11/28 09:32:57;;;;;;;2.22;2.03;;;5.00;78.50;;;;;;4956805;29;20031;-74
2023/11/28 09:35:23;;;;;;;2.30;2.10;;;5.00;78.50;;;;;;4955596;29;20391;-74
2023/11/28 09:37:49;;;;;;;2.28;2.08;;;5.10;78.60;;;;;;4939577;29;20051;-74
2023/11/28 09:40:15;;;;;;;3.17;2.33;;;5.00;78.50;;;;;;4955681;29;20428;-73
2023/11/28 09:42:42;;;;;;;2.20;1.83;;;5.10;78.60;;;;;;4939578;29;20035;-74
2023/11/28 09:45:08;;;;;;;2.13;1.90;;;5.10;78.60;;;;;;4940829;29;20131;-74
2023/11/28 09:47:35;;;;;;;2.60;2.05;;;5.10;78.60;;;;;;4956534;28;20128;-73
2023/11/28 09:50:05;;;;;;;2.05;1.85;;;5.10;78.60;;;;;;4955600;29;20484;-73
2023/11/28 09:52:35;;;;;;;2.40;2.00;;;5.10;78.60;;;;;;4955291;29;20417;-73
2023/11/28 09:55:01;;;;;;;2.40;2.20;;;5.10;78.60;;;;;;4956378;28;20042;-74
2023/11/28 09:57:33;;;;;;;3.58;2.47;;;5.10;78.60;;;;;;4957011;28;20090;-74
2023/11/28 09:59:59;;;;;;;2.10;1.90;;;5.10;78.70;;;;;;4955461;29;20035;-74
2023/11/28 10:02:28;;;;;;;2.20;2.00;;;5.10;78.60;;;;;;4956819;28;20034;-73
2023/11/28 10:04:54;;;;;;;2.70;2.20;;;5.10;78.60;;;;;;4955410;29;20031;-74
2023/11/28 10:07:31;;;;;;;2.97;2.17;;;5.10;78.60;;;;;;4956165;28;20170;-73
2023/11/28 10:09:59;;;;;;;2.40;2.20;;;5.10;78.60;;;;;;4956261;28;20039;-73
2023/11/28 10:12:25;;;;;;;3.13;2.50;;;5.10;78.60;;;;;;4955351;29;20106;-73
2023/11/28 10:14:51;;;;;;;2.40;2.10;;;5.10;78.60;;;;;;4956281;28;20461;-74
2023/11/28 10:17:17;;;;;;;3.25;2.30;;;5.10;78.60;;;;;;4956487;29;20105;-73
2023/11/28 10:19:44;;;;;;;2.40;2.20;;;5.10;78.60;;;;;;4955080;29;20477;-74
2023/11/28 10:22:12;;;;;;;3.00;2.30;;;5.10;78.60;;;;;;4954947;29;20035;-74
2023/11/28 10:24:38;;;;;;;2.72;2.08;;;5.10;78.60;;;;;;4954971;29;20032;-73
2023/11/28 10:27:05;;;;;;;2.35;2.08;;;5.10;78.60;;;;;;4954802;29;20037;-74
2023/11/28 10:29:32;;;;;;;2.72;2.08;;;5.10;78.60;;;;;;4938817;29;20463;-73
2023/11/28 10:32:00;;;;;;;2.70;2.35;;;5.10;78.70;;;;;;4955942;28;20039;-74
2023/11/28 10:34:27;;;;;;;2.22;2.03;;;5.10;78.70;;;;;;4955673;28;20062;-73
2023/11/28 10:36:56;;;;;;;2.88;2.42;;;5.10;78.60;;;;;;4955778;28;20051;-74
2023/11/28 10:39:22;;;;;;;2.38;1.98;;;5.10;78.60;;;;;;4955557;28;20031;-73
2023/11/28 10:41:48;;;;;;;2.55;2.10;;;5.10;78.60;;;;;;4954365;29;20550;-74
2023/11/28 10:44:14;;;;;;;2.60;2.10;;;5.20;78.70;;;;;;4955844;28;20118;-73
2023/11/28 10:46:40;;;;;;;2.70;2.10;;;5.20;78.70;;;;;;4954737;29;20122;-73
2023/11/28 10:49:06;;;;;;;2.17;1.98;;;5.20;78.70;;;;;;4938706;29;20027;-74
2023/11/28 10:51:33;;;;;;;3.08;2.22;;;5.10;78.60;;;;;;4955665;29;20035;-73
2023/11/28 10:54:10;;;;;;;2.95;2.10;;;5.20;78.70;;;;;;4955273;28;20109;-74
2023/11/28 10:56:49;;;;;;;2.88;2.10;;;5.20;78.70;;;;;;4954115;29;20036;-73
2023/11/28 10:59:31;;;;;;;3.13;2.22;;;5.20;78.70;;;;;;4937576;29;20038;-73
2023/11/28 11:01:57;;;;;;;2.50;2.03;;;5.20;78.70;;;;;;4939141;29;20031;-74
2023/11/28 11:04:24;;;;;;;2.05;1.85;;;5.20;78.60;;;;;;4954034;29;20031;-73
2023/11/28 11:06:50;;;;;;;2.20;2.00;;;5.20;78.70;;;;;;4955830;28;20039;-74
2023/11/28 11:09:16;;;;;;;2.53;2.20;;;5.20;78.70;;;;;;4955451;28;20062;-74
2023/11/28 11:11:42;;;;;;;3.60;2.30;;;5.20;78.70;;;;;;4954221;29;20071;-74
2023/11/28 11:14:26;;;;;;;2.75;2.10;;;5.20;78.70;;;;;;4954412;29;20031;-74
2023/11/28 11:17:20;;;;;;;2.42;2.20;;;5.20;78.80;;;;;;4954231;29;20039;-74
2023/11/28 11:19:50;;;;;;;3.05;2.30;;;5.20;78.70;;;;;;4955629;29;20047;-73
2023/11/28 11:22:18;;;;;;;3.30;2.00;;;5.30;78.70;;;;;;4938900;29;20380;-74
2023/11/28 11:24:44;;;;;;;2.97;2.20;;;5.30;78.70;;;;;;4938207;29;20476;-75
2023/11/28 11:27:09;;;;;;;2.88;2.17;;;5.30;78.70;;;;;;4954076;29;20035;-74
2023/11/28 11:29:40;;;;;;;2.33;2.00;;;5.30;78.70;;;;;;4937975;29;20032;-74
2023/11/28 11:32:11;;;;;;;2.50;2.30;;;5.30;78.80;;;;;;4955227;28;20507;-74
2023/11/28 11:34:41;;;;;;;2.78;2.22;;;5.30;78.80;;;;;;4955249;28;20041;-75
2023/11/28 11:37:10;;;;;;;2.78;2.20;;;5.30;78.80;;;;;;4953903;29;20070;-75
2023/11/28 11:39:38;;;;;;;2.58;2.05;;;5.30;78.80;;;;;;4954208;29;20027;-74
2023/11/28 11:42:27;;;;;;;3.38;2.40;;;5.30;78.80;;;;;;4953734;29;20028;-74
2023/11/28 11:45:02;;;;;;;2.47;2.10;;;5.30;78.80;;;;;;4954766;29;20086;-74
2023/11/28 11:47:29;;;;;;;2.72;2.33;;;5.30;78.70;;;;;;4938692;29;20035;-74
2023/11/28 11:49:56;;;;;;;3.08;2.40;;;5.30;78.70;;;;;;4922159;29;20157;-74
2023/11/28 11:52:25;;;;;;;2.38;2.17;;;5.30;78.70;;;;;;4954132;29;20040;-75
2023/11/28 11:55:18;;;;;;;2.70;2.30;;;5.40;78.80;;;;;;4954186;29;20027;-74
2023/11/28 11:57:44;;;;;;;3.15;2.17;;;5.40;78.80;;;;;;4955268;28;20035;-74
2023/11/28 12:00:11;;;;;;;2.80;2.20;;;5.40;78.70;;;;;;4938078;29;20102;-74
2023/11/28 12:02:43;;;;;;;2.60;2.20;;;5.40;78.70;;;;;;4953573;29;20037;-74
2023/11/28 12:05:10;;;;;;;2.80;2.35;;;5.40;78.80;;;;;;4953889;29;20142;-74
2023/11/28 12:07:40;;;;;;;3.40;2.28;;;5.40;78.70;;;;;;4937700;29;20039;-74
2023/11/28 12:10:11;;;;;;;3.65;2.35;;;5.50;78.70;;;;;;4954182;28;20031;-75
2023/11/28 12:12:39;;;;;;;2.85;2.30;;;5.50;78.70;;;;;;4926431;29;20031;-74
2023/11/28 12:15:05;;;;;;;3.10;2.28;;;5.50;78.70;;;;;;4957524;29;20489;-74
2023/11/28 12:17:31;;;;;;;2.65;2.10;;;5.60;78.70;;;;;;4958421;28;20039;-74
2023/11/28 12:19:57;;;;;;;2.40;2.20;;;5.60;78.70;;;;;;4959057;29;20060;-74
2023/11/28 12:22:23;;;;;;;2.22;2.03;;;5.60;78.70;;;;;;4958578;29;20046;-74
2023/11/28 12:24:48;;;;;;;4.10;2.28;;;5.60;78.70;;;;;;4925382;29;20460;-75
2023/11/28 12:27:15;;;;;;;3.05;2.28;;;5.60;78.70;;;;;;4957911;29;20162;-74
2023/11/28 12:29:41;;;;;;;2.35;2.00;;;5.60;78.70;;;;;;4941234;29;20142;-74
2023/11/28 12:32:07;;;;;;;3.05;2.30;;;5.70;78.70;;;;;;4957063;29;20062;-75
2023/11/28 12:34:35;;;;;;;2.80;2.28;;;5.70;78.70;;;;;;4956989;29;20066;-74
2023/11/28 12:37:03;;;;;;;2.13;1.92;;;5.80;78.80;;;;;;4956811;29;20045;-74
2023/11/28 12:39:29;;;;;;;2.78;2.20;;;5.70;78.70;;;;;;4956626;29;20035;-74
2023/11/28 12:41:55;;;;;;;3.42;2.50;;;5.80;78.70;;;;;;4956989;29;20420;-74
2023/11/28 12:44:24;;;;;;;2.80;2.03;;;5.80;78.70;;;;;;4940714;29;20456;-74
2023/11/28 12:46:54;;;;;;;2.20;2.00;;;5.80;78.70;;;;;;4956313;29;20040;-74
2023/11/28 12:49:21;;;;;;;2.78;2.40;;;5.80;78.70;;;;;;4956537;29;20473;-74
2023/11/28 12:51:47;;;;;;;2.88;2.20;;;5.80;78.70;;;;;;4956622;29;20439;-74
2023/11/28 12:54:14;;;;;;;2.45;2.00;;;5.90;78.80;;;;;;4940536;29;20544;-74
2023/11/28 12:56:55;;;;;;;2.63;2.08;;;5.90;78.70;;;;;;4957449;28;20048;-74